Terminal Aerodrome Forecast
Issued by NWS Mt. Holly, NJ

Home | Current Version | Previous Version | Text Only | Print | Product List | Glossary On
Versions: 1 2 3 4 5 6 7 8 9 10 11 12 13 14 15 16 17 18 19
000
FTUS41 KPHI 011100
TAFILG
TAF
KILG 011120Z 0112/0212 23004KT P6SM OVC050
     FM012100 VRB06KT P6SM OVC025
     FM020000 10006KT 2SM -SN BKN010
     FM020400 12006KT 1SM -FZRAPL BKN007
     FM020800 14011KT 2SM RA BKN007=

USA.gov is the U.S. government's official web portal to all federal, state and local government web resources and services.